createdAt,value
2023-05-20T00:01:02.342Z,9.70
2023-05-20T00:06:05.459Z,9.93
2023-05-20T00:11:08.484Z,8.13
2023-05-20T00:16:11.630Z,9.05
2023-05-20T00:21:14.683Z,8.68
2023-05-20T00:26:18.031Z,8.40
2023-05-20T00:31:27.986Z,10.02
2023-05-20T00:36:31.612Z,7.85
2023-05-20T00:41:35.688Z,8.00
2023-05-20T00:46:39.158Z,7.88
2023-05-20T00:51:42.329Z,8.75
2023-05-20T00:56:45.690Z,8.48
2023-05-20T01:01:48.830Z,8.63
2023-05-20T01:06:52.719Z,7.32
2023-05-20T01:11:59.695Z,7.85
2023-05-20T01:17:09.720Z,7.55
2023-05-20T01:22:14.492Z,7.35
2023-05-20T01:27:22.947Z,7.07
2023-05-20T01:32:32.386Z,7.18
2023-05-20T01:37:39.032Z,6.60
2023-05-20T01:42:43.633Z,6.50
2023-05-20T01:47:46.884Z,6.38
2023-05-20T01:52:49.965Z,6.78
2023-05-20T01:57:53.280Z,7.20
2023-05-20T02:02:57.093Z,5.68
2023-05-20T02:08:00.258Z,6.43
2023-05-20T02:13:03.309Z,6.43
2023-05-20T02:18:06.837Z,6.20
2023-05-20T02:23:09.881Z,7.70
2023-05-20T02:28:13.206Z,6.63
2023-05-20T02:33:16.456Z,6.20
2023-05-20T02:38:19.948Z,6.93
2023-05-20T02:43:22.999Z,7.07
2023-05-20T02:48:26.085Z,7.18
2023-05-20T02:53:29.407Z,7.00
2023-05-20T02:58:33.606Z,6.82
2023-05-20T03:03:38.475Z,7.20
2023-05-20T03:08:43.078Z,8.68
2023-05-20T03:13:46.092Z,9.18
2023-05-20T03:18:50.023Z,10.35
2023-05-20T03:23:53.594Z,7.38
2023-05-20T03:28:56.790Z,6.85
2023-05-20T03:34:00.639Z,6.38
2023-05-20T03:39:04.752Z,4.60
2023-05-20T03:44:09.213Z,5.63
2023-05-20T03:49:12.479Z,4.68
2023-05-20T03:54:17.620Z,4.72
2023-05-20T03:59:25.158Z,4.07
2023-05-20T04:04:28.512Z,4.75
2023-05-20T04:09:31.820Z,4.70
2023-05-20T04:14:35.421Z,4.05
2023-05-20T04:19:38.813Z,3.63
2023-05-20T04:24:42.232Z,3.13
2023-05-20T04:29:46.294Z,3.63
2023-05-20T04:34:51.072Z,3.53
2023-05-20T04:39:55.211Z,3.38
2023-05-20T04:44:58.550Z,3.72
2023-05-20T04:50:01.872Z,4.15
2023-05-20T04:55:10.753Z,3.20
2023-05-20T05:00:14.778Z,2.33
2023-05-20T05:05:18.221Z,2.42
2023-05-20T05:10:22.266Z,2.42
2023-05-20T05:15:26.111Z,2.42
2023-05-20T05:20:29.259Z,2.03
2023-05-20T05:25:33.023Z,2.40
2023-05-20T05:30:37.879Z,1.77
2023-05-20T05:35:45.020Z,2.00
2023-05-20T05:40:48.627Z,2.13
2023-05-20T05:45:53.221Z,1.90
2023-05-20T05:50:56.531Z,2.05
2023-05-20T05:55:59.867Z,2.38
2023-05-20T06:01:03.389Z,2.40
2023-05-20T06:06:06.813Z,1.85
2023-05-20T06:11:11.119Z,2.58
2023-05-20T06:16:14.191Z,2.30
2023-05-20T06:21:17.760Z,2.10
2023-05-20T06:26:21.491Z,2.22
2023-05-20T06:31:25.818Z,2.10
2023-05-20T06:36:30.285Z,2.70
2023-05-20T06:41:35.003Z,2.45
2023-05-20T06:46:45.386Z,2.10
2023-05-20T06:51:51.545Z,2.47
2023-05-20T06:56:55.226Z,2.22
2023-05-20T07:01:59.652Z,2.55
2023-05-20T07:07:02.864Z,2.47
2023-05-20T07:12:06.815Z,2.63
2023-05-20T07:17:10.057Z,2.70
2023-05-20T07:22:14.531Z,2.40
2023-05-20T07:27:34.292Z,2.28
2023-05-20T07:32:38.742Z,3.00
2023-05-20T07:37:42.560Z,2.92
2023-05-20T07:42:45.807Z,2.50
2023-05-20T07:47:49.150Z,3.10
2023-05-20T07:52:56.529Z,2.97
2023-05-20T07:58:03.906Z,3.10
2023-05-20T08:03:09.994Z,2.65
2023-05-20T08:08:24.793Z,2.50
2023-05-20T08:13:31.983Z,2.80
2023-05-20T08:18:38.153Z,3.00
2023-05-20T08:23:41.688Z,2.85
2023-05-20T08:28:44.755Z,3.10
2023-05-20T08:33:49.404Z,3.35
2023-05-20T08:38:52.553Z,2.95
2023-05-20T08:43:57.745Z,3.00
2023-05-20T08:49:01.899Z,3.40
2023-05-20T08:54:04.934Z,3.17
2023-05-20T08:59:09.061Z,3.10
2023-05-20T09:04:12.265Z,2.80
2023-05-20T09:09:16.004Z,2.95
2023-05-20T09:14:19.099Z,3.20
2023-05-20T09:19:25.482Z,2.60
2023-05-20T09:24:28.818Z,2.60
2023-05-20T09:29:34.226Z,3.10
2023-05-20T09:34:38.774Z,3.13
2023-05-20T09:40:00.940Z,2.88
2023-05-20T09:45:05.875Z,3.05
2023-05-20T09:50:10.082Z,3.20
2023-05-20T09:55:13.108Z,3.00
2023-05-20T10:00:19.997Z,3.10
2023-05-20T10:05:31.012Z,2.72
2023-05-20T10:10:52.297Z,2.70
2023-05-20T10:16:07.255Z,2.67
2023-05-20T10:21:24.773Z,2.88
2023-05-20T10:26:36.905Z,2.95
2023-05-20T10:31:51.857Z,2.38
2023-05-20T10:36:55.013Z,2.92
2023-05-20T10:42:11.594Z,2.60
2023-05-20T10:52:21.197Z,3.10
2023-05-20T10:57:26.735Z,2.53
2023-05-20T11:02:30.510Z,3.50
2023-05-20T11:07:34.410Z,2.72
2023-05-20T11:12:37.608Z,2.63
2023-05-20T11:17:52.866Z,2.75
2023-05-20T11:22:57.152Z,3.75
2023-05-20T11:28:00.342Z,2.58
2023-05-20T11:33:04.860Z,3.45
2023-05-20T11:38:11.421Z,2.05
2023-05-20T11:43:15.334Z,2.60
2023-05-20T11:48:20.034Z,3.25
2023-05-20T11:58:31.245Z,3.30
2023-05-20T12:03:34.541Z,2.80
2023-05-20T12:08:38.031Z,2.47
2023-05-20T12:13:41.297Z,3.10
2023-05-20T12:18:44.397Z,2.22
2023-05-20T12:23:47.629Z,2.67
2023-05-20T12:28:50.844Z,2.60
2023-05-20T12:33:54.003Z,3.17
2023-05-20T12:38:57.052Z,2.47
2023-05-20T12:44:00.282Z,2.92
2023-05-20T12:49:03.696Z,2.85
2023-05-20T12:54:07.151Z,3.05
2023-05-20T12:59:10.188Z,2.40
2023-05-20T13:04:13.340Z,3.20
2023-05-20T13:09:16.539Z,3.15
2023-05-20T13:14:19.689Z,3.13
2023-05-20T13:19:23.562Z,2.83
2023-05-20T13:24:26.712Z,2.83
2023-05-20T13:29:29.732Z,2.75
2023-05-20T13:34:32.838Z,3.05
2023-05-20T13:39:36.745Z,2.80
2023-05-20T13:44:39.768Z,3.20
2023-05-20T13:49:42.881Z,3.20
2023-05-20T13:54:47.767Z,2.80
2023-05-20T14:04:54.279Z,2.42
2023-05-20T14:09:57.421Z,2.97
2023-05-20T14:15:00.456Z,2.63
2023-05-20T14:20:03.572Z,3.15
2023-05-20T14:25:07.167Z,3.05
2023-05-20T14:30:10.669Z,4.43
2023-05-20T14:35:13.879Z,3.10
2023-05-20T14:40:17.149Z,3.05
2023-05-20T14:45:20.829Z,3.20
2023-05-20T14:50:26.598Z,3.25
2023-05-20T14:55:29.708Z,3.35
2023-05-20T15:00:33.386Z,3.30
2023-05-20T15:05:36.867Z,4.30
2023-05-20T15:10:40.000Z,2.85
2023-05-20T15:15:43.209Z,3.00
2023-05-20T15:20:46.330Z,3.33
2023-05-20T15:25:50.630Z,2.97
2023-05-20T15:30:56.832Z,3.70
2023-05-20T15:36:00.162Z,4.32
2023-05-20T15:41:03.313Z,5.63
2023-05-20T15:46:06.539Z,5.55
2023-05-20T15:51:09.956Z,3.42
2023-05-20T15:56:13.284Z,3.85
2023-05-20T16:01:16.586Z,3.13
2023-05-20T16:06:19.806Z,2.80
2023-05-20T16:11:24.005Z,3.15
2023-05-20T16:16:27.334Z,3.05
2023-05-20T16:21:31.975Z,2.97
2023-05-20T16:26:35.222Z,2.92
2023-05-20T16:31:38.407Z,2.92
2023-05-20T16:36:41.592Z,3.05
2023-05-20T16:41:44.979Z,2.88
2023-05-20T16:46:48.170Z,2.85
2023-05-20T16:51:52.668Z,2.80
2023-05-20T16:56:55.845Z,3.08
2023-05-20T17:01:59.172Z,2.45
2023-05-20T17:07:02.560Z,2.45
2023-05-20T17:12:06.693Z,2.95
2023-05-20T17:17:09.865Z,2.20
2023-05-20T17:22:13.138Z,2.47
2023-05-20T17:27:16.581Z,2.65
2023-05-20T17:32:19.910Z,3.80
2023-05-20T17:37:23.059Z,4.72
2023-05-20T17:42:26.364Z,6.35
2023-05-20T17:47:29.468Z,5.10
2023-05-20T17:52:32.738Z,6.60
2023-05-20T17:57:36.016Z,3.63
2023-05-20T18:02:39.170Z,2.20
2023-05-20T18:07:42.428Z,2.40
2023-05-20T18:12:46.015Z,2.20
2023-05-20T18:17:49.208Z,2.45
2023-05-20T18:22:58.488Z,2.00
2023-05-20T18:28:01.945Z,1.65
2023-05-20T18:33:05.093Z,2.08
2023-05-20T18:38:08.082Z,2.10
2023-05-20T18:43:12.816Z,1.70
2023-05-20T18:48:25.671Z,1.25
2023-05-20T18:53:29.999Z,1.65
2023-05-20T18:58:33.176Z,2.28
2023-05-20T19:03:36.520Z,2.78
2023-05-20T19:08:40.058Z,3.80
2023-05-20T19:13:43.189Z,4.68
2023-05-20T19:18:46.806Z,5.95
2023-05-20T19:23:50.124Z,5.43
2023-05-20T19:28:53.178Z,8.27
2023-05-20T19:33:56.260Z,8.40
2023-05-20T19:38:59.288Z,6.38
2023-05-20T19:44:02.668Z,8.55
2023-05-20T19:49:06.526Z,6.57
2023-05-20T19:54:10.379Z,5.72
2023-05-20T19:59:13.517Z,7.43
2023-05-20T20:04:18.654Z,6.55
2023-05-20T20:09:21.844Z,4.90
2023-05-20T20:14:24.877Z,3.25
2023-05-20T20:19:28.906Z,1.75
2023-05-20T20:24:31.959Z,1.55
2023-05-20T20:29:35.028Z,1.73
2023-05-20T20:34:38.083Z,1.55
2023-05-20T20:39:41.502Z,2.28
2023-05-20T20:44:48.728Z,2.25
2023-05-20T20:49:51.746Z,1.92
2023-05-20T20:54:54.767Z,2.00
2023-05-20T20:59:58.882Z,2.45
2023-05-20T21:05:02.439Z,2.92
2023-05-20T21:10:08.181Z,3.33
2023-05-20T21:15:12.934Z,2.67
2023-05-20T21:20:16.342Z,2.78
2023-05-20T21:25:19.728Z,2.58
2023-05-20T21:30:24.410Z,2.75
2023-05-20T21:35:27.558Z,3.63
2023-05-20T21:40:30.571Z,3.75
2023-05-20T21:45:33.735Z,3.15
2023-05-20T21:50:36.867Z,2.83
2023-05-20T21:55:39.869Z,3.25
2023-05-20T22:00:43.404Z,2.85
2023-05-20T22:05:46.690Z,2.88
2023-05-20T22:10:49.705Z,5.40
2023-05-20T22:15:53.778Z,5.88
2023-05-20T22:20:59.695Z,5.00
2023-05-20T22:26:03.021Z,4.97
2023-05-20T22:31:06.675Z,5.75
2023-05-20T22:36:09.981Z,6.72
2023-05-20T22:41:13.572Z,5.22
2023-05-20T22:46:16.775Z,5.43
2023-05-20T22:51:24.871Z,5.40
2023-05-20T22:56:27.904Z,4.93
2023-05-20T23:01:31.204Z,5.53
2023-05-20T23:06:38.328Z,3.53
2023-05-20T23:11:41.361Z,2.83
2023-05-20T23:16:44.439Z,3.13
2023-05-20T23:21:47.488Z,3.60
2023-05-20T23:26:50.938Z,2.88
2023-05-20T23:31:53.994Z,3.00
2023-05-20T23:36:57.221Z,2.50
2023-05-20T23:42:00.266Z,2.00
2023-05-20T23:47:04.345Z,1.95
2023-05-20T23:52:07.516Z,2.60
2023-05-20T23:57:12.057Z,2.10
